Time;durP1;ratioP1;P1;durP2;ratioP2;P2;SDS_P1;SDS_P2;PMS_P1;PMS_P2;Temp;Humidity;BMP_temperature;BMP_pressure;BME280_temperature;BME280_humidity;BME280_pressure;Samples;Min_cycle;Max_cycle;Signal;HPM_P1;HPM_P2
2023/11/16 04:06:22;;;;;;;0.30;0.30;;;8.70;99.90;;;;;;5441218;23;20254;-63
2023/11/16 04:08:48;;;;;;;0.40;0.40;;;8.70;99.90;;;;;;4957935;28;20183;-64
2023/11/16 04:11:13;;;;;;;0.40;0.40;;;8.70;99.90;;;;;;4975298;28;20556;-62
2023/11/16 04:13:39;;;;;;;0.40;0.40;;;8.70;99.90;;;;;;4974887;28;20180;-63
2023/11/16 04:16:15;;;;;;;0.33;0.33;;;8.80;99.90;;;;;;4963231;28;20200;-65
2023/11/16 04:18:40;;;;;;;0.30;0.30;;;8.70;99.90;;;;;;4955633;29;20263;-64
2023/11/16 04:21:08;;;;;;;0.30;0.30;;;8.70;99.90;;;;;;4955696;29;20577;-65
2023/11/16 04:23:35;;;;;;;0.30;0.30;;;8.60;99.90;;;;;;4938721;29;20180;-63
2023/11/16 04:26:01;;;;;;;0.40;0.40;;;8.60;99.90;;;;;;4955265;28;20615;-64
2023/11/16 04:28:29;;;;;;;0.30;0.30;;;8.60;99.90;;;;;;4955804;29;20177;-63
2023/11/16 04:30:55;;;;;;;0.40;0.40;;;8.60;99.90;;;;;;4955537;29;20596;-65
2023/11/16 04:33:20;;;;;;;0.50;0.50;;;8.60;99.90;;;;;;4955355;29;20177;-63
2023/11/16 04:35:46;;;;;;;0.37;0.37;;;8.50;99.90;;;;;;4936468;29;20213;-63
2023/11/16 04:38:14;;;;;;;0.40;0.40;;;8.50;99.90;;;;;;4955673;29;20228;-64
2023/11/16 04:40:40;;;;;;;0.30;0.30;;;8.50;99.90;;;;;;4955649;29;20188;-65
2023/11/16 04:43:05;;;;;;;0.40;0.40;;;8.60;99.90;;;;;;4955492;29;20200;-65
2023/11/16 04:45:32;;;;;;;0.40;0.40;;;8.60;99.90;;;;;;4955093;28;20200;-62
2023/11/16 04:47:58;;;;;;;0.40;0.40;;;8.60;99.90;;;;;;4937945;29;20184;-63
2023/11/16 04:50:31;;;;;;;0.35;0.35;;;8.60;99.90;;;;;;4937732;29;20200;-63
2023/11/16 04:52:57;;;;;;;0.30;0.30;;;8.70;99.90;;;;;;4937999;29;20205;-64
2023/11/16 04:55:23;;;;;;;0.32;0.32;;;8.70;99.90;;;;;;4937787;29;20673;-63
2023/11/16 04:57:49;;;;;;;0.30;0.30;;;8.70;99.90;;;;;;4955208;29;20188;-63
2023/11/16 05:00:18;;;;;;;0.30;0.30;;;8.70;99.90;;;;;;4955238;29;20195;-63
2023/11/16 05:02:44;;;;;;;0.32;0.32;;;8.80;99.90;;;;;;4955022;29;20177;-62
2023/11/16 05:05:09;;;;;;;0.37;0.37;;;8.80;99.90;;;;;;4954666;28;20189;-63
2023/11/16 05:07:35;;;;;;;0.30;0.30;;;8.80;99.90;;;;;;4954567;28;20183;-65
2023/11/16 05:10:01;;;;;;;0.30;0.30;;;8.80;99.90;;;;;;4955436;29;20169;-63
2023/11/16 05:12:27;;;;;;;0.30;0.30;;;8.80;99.90;;;;;;4954864;29;20228;-63
2023/11/16 05:14:56;;;;;;;0.30;0.30;;;8.90;99.90;;;;;;4952462;28;20241;-65
2023/11/16 05:17:22;;;;;;;0.30;0.30;;;8.90;99.90;;;;;;4954412;29;20205;-64
2023/11/16 05:19:47;;;;;;;1.30;1.27;;;8.90;99.90;;;;;;4953569;29;20675;-65
2023/11/16 05:22:13;;;;;;;0.43;0.43;;;8.90;99.90;;;;;;4954270;29;20416;-62
2023/11/16 05:24:39;;;;;;;0.32;0.32;;;8.90;99.90;;;;;;4954570;28;20173;-64
2023/11/16 05:27:05;;;;;;;0.30;0.30;;;8.90;99.90;;;;;;4937664;29;20173;-64
2023/11/16 05:29:31;;;;;;;0.30;0.30;;;8.90;99.90;;;;;;4954969;29;20227;-64
2023/11/16 05:31:58;;;;;;;0.68;0.68;;;8.90;99.90;;;;;;4953828;29;20688;-62
2023/11/16 05:34:24;;;;;;;0.35;0.35;;;8.90;99.90;;;;;;4952155;29;20549;-63
2023/11/16 05:36:51;;;;;;;0.30;0.20;;;8.90;99.90;;;;;;4952370;28;20661;-65
2023/11/16 05:39:19;;;;;;;0.30;0.30;;;8.80;99.90;;;;;;4952788;29;20193;-65
2023/11/16 05:41:45;;;;;;;2.55;1.40;;;8.80;99.90;;;;;;4935470;29;20269;-64
2023/11/16 05:44:12;;;;;;;0.40;0.40;;;8.90;99.90;;;;;;4935156;29;20266;-64
2023/11/16 05:46:38;;;;;;;0.30;0.30;;;8.90;99.90;;;;;;4934882;29;20205;-64
2023/11/16 05:49:06;;;;;;;0.30;0.30;;;8.90;99.90;;;;;;4954782;29;20541;-64
2023/11/16 05:51:36;;;;;;;0.30;0.30;;;8.90;99.90;;;;;;4937353;29;20458;-63
2023/11/16 05:54:03;;;;;;;0.47;0.47;;;8.90;99.90;;;;;;4954247;29;20544;-64
2023/11/16 05:56:28;;;;;;;0.30;0.30;;;8.90;99.90;;;;;;4954558;28;20197;-63
2023/11/16 05:58:54;;;;;;;0.40;0.40;;;8.80;99.90;;;;;;4954793;29;20190;-64
2023/11/16 06:01:19;;;;;;;0.30;0.30;;;8.80;99.90;;;;;;4953985;29;20181;-64
2023/11/16 06:03:45;;;;;;;0.30;0.30;;;8.70;99.90;;;;;;4953962;29;20544;-63
2023/11/16 06:06:10;;;;;;;0.30;0.30;;;8.70;99.90;;;;;;4953959;28;20227;-64
2023/11/16 06:08:37;;;;;;;0.40;0.40;;;8.70;99.90;;;;;;4954648;29;20256;-63
2023/11/16 06:11:03;;;;;;;0.30;0.30;;;8.70;99.90;;;;;;4937875;29;20592;-63
2023/11/16 06:13:29;;;;;;;0.40;0.40;;;8.70;99.90;;;;;;4954487;29;20184;-62
2023/11/16 06:15:55;;;;;;;0.30;0.30;;;8.70;99.90;;;;;;4953632;28;20495;-62
2023/11/16 06:18:23;;;;;;;0.40;0.40;;;8.60;99.90;;;;;;4954178;29;20637;-62
2023/11/16 06:20:49;;;;;;;0.30;0.30;;;8.60;99.90;;;;;;4939642;29;20184;-62
2023/11/16 06:23:15;;;;;;;0.30;0.30;;;8.60;99.90;;;;;;4957953;29;20252;-62
2023/11/16 06:25:40;;;;;;;0.30;0.30;;;8.60;99.90;;;;;;4957780;28;20224;-62
2023/11/16 06:28:06;;;;;;;0.30;0.30;;;8.70;99.90;;;;;;4969344;28;20180;-63
2023/11/16 06:30:31;;;;;;;0.30;0.30;;;8.70;99.90;;;;;;4957545;29;20340;-64
2023/11/16 06:32:57;;;;;;;0.30;0.30;;;8.70;99.90;;;;;;4940682;29;20204;-63
2023/11/16 06:35:22;;;;;;;0.40;0.40;;;8.70;99.90;;;;;;4957245;28;20196;-67
2023/11/16 06:37:48;;;;;;;0.30;0.20;;;8.70;99.90;;;;;;4940434;29;20181;-65
2023/11/16 06:40:14;;;;;;;0.40;0.40;;;8.60;99.90;;;;;;4957710;29;20177;-67
2023/11/16 06:42:40;;;;;;;0.30;0.30;;;8.60;99.90;;;;;;4957549;29;20196;-67
2023/11/16 06:45:06;;;;;;;0.30;0.30;;;8.60;99.90;;;;;;4959958;28;20439;-67
2023/11/16 06:47:32;;;;;;;0.50;0.50;;;8.60;99.90;;;;;;4976032;28;20426;-63
2023/11/16 06:49:58;;;;;;;0.30;0.27;;;8.60;99.90;;;;;;4965201;28;20580;-62
2023/11/16 06:52:26;;;;;;;0.50;0.50;;;8.60;99.90;;;;;;4957593;29;20216;-63
2023/11/16 06:54:53;;;;;;;0.32;0.32;;;8.60;99.90;;;;;;4957189;28;20228;-65
2023/11/16 06:57:22;;;;;;;0.30;0.30;;;8.60;99.90;;;;;;4958323;28;20208;-64
2023/11/16 06:59:49;;;;;;;0.30;0.30;;;8.70;99.90;;;;;;4957649;29;20239;-63
2023/11/16 07:02:15;;;;;;;0.40;0.40;;;8.70;99.90;;;;;;4955876;29;20169;-63
2023/11/16 07:04:41;;;;;;;0.40;0.40;;;8.70;99.90;;;;;;4947398;28;20180;-62
2023/11/16 07:07:07;;;;;;;0.50;0.50;;;8.70;99.90;;;;;;4958817;28;20208;-67
2023/11/16 07:09:37;;;;;;;0.30;0.30;;;8.70;99.90;;;;;;4955008;28;20224;-64
2023/11/16 07:12:04;;;;;;;0.30;0.30;;;8.60;99.90;;;;;;4958840;28;20208;-64
2023/11/16 07:14:31;;;;;;;0.40;0.40;;;8.70;99.90;;;;;;4967373;28;20183;-62
2023/11/16 07:16:57;;;;;;;0.30;0.30;;;8.60;99.90;;;;;;4956729;28;20252;-63
2023/11/16 07:19:25;;;;;;;0.30;0.30;;;8.60;99.90;;;;;;4956971;29;20172;-63
2023/11/16 07:21:51;;;;;;;0.30;0.30;;;8.60;99.90;;;;;;4972247;28;20226;-62
2023/11/16 07:24:17;;;;;;;0.30;0.30;;;8.60;99.90;;;;;;4948716;28;20963;-63
2023/11/16 07:26:43;;;;;;;0.30;0.30;;;8.60;99.90;;;;;;4920425;29;20197;-63
2023/11/16 07:29:08;;;;;;;0.30;0.30;;;8.70;99.90;;;;;;4945732;28;20629;-63
2023/11/16 07:31:34;;;;;;;0.30;0.27;;;8.80;99.90;;;;;;4960745;28;20204;-62
2023/11/16 07:34:00;;;;;;;0.30;0.30;;;8.80;99.90;;;;;;4937157;28;20209;-65
2023/11/16 07:36:27;;;;;;;0.43;0.43;;;8.90;99.90;;;;;;4940189;28;20221;-62
2023/11/16 07:39:01;;;;;;;0.30;0.30;;;8.90;99.90;;;;;;4946658;28;20172;-63
2023/11/16 07:41:30;;;;;;;0.50;0.50;;;8.90;99.90;;;;;;4918926;29;20239;-63
2023/11/16 07:43:57;;;;;;;0.40;0.40;;;9.00;99.90;;;;;;4936605;29;20200;-65
2023/11/16 07:46:25;;;;;;;0.40;0.40;;;9.00;99.90;;;;;;4964080;28;20645;-63
2023/11/16 07:48:51;;;;;;;0.30;0.30;;;9.00;99.90;;;;;;4975879;28;20247;-64
2023/11/16 07:51:19;;;;;;;0.37;0.37;;;9.10;99.90;;;;;;4969479;28;20228;-64
2023/11/16 07:53:51;;;;;;;0.40;0.40;;;9.10;99.90;;;;;;4928253;28;20225;-62
2023/11/16 07:56:18;;;;;;;0.40;0.40;;;9.10;99.90;;;;;;4955421;28;20205;-63
2023/11/16 07:58:49;;;;;;;0.30;0.30;;;9.20;99.90;;;;;;4959589;28;20180;-63
2023/11/16 08:01:21;;;;;;;0.40;0.40;;;9.30;99.90;;;;;;4956716;28;20172;-64
2023/11/16 08:03:55;;;;;;;0.40;0.40;;;9.30;99.90;;;;;;4965391;28;20193;-63
2023/11/16 08:06:22;;;;;;;0.30;0.30;;;9.40;99.90;;;;;;4953380;28;20214;-65
2023/11/16 08:08:49;;;;;;;0.40;0.40;;;9.40;99.90;;;;;;4963526;28;20172;-65
2023/11/16 08:11:16;;;;;;;0.30;0.30;;;9.50;99.90;;;;;;4957569;28;20201;-63
2023/11/16 08:13:45;;;;;;;0.30;0.30;;;9.60;99.90;;;;;;4956048;28;20177;-63
2023/11/16 08:16:15;;;;;;;0.30;0.30;;;9.60;99.90;;;;;;4947714;28;20304;-63
2023/11/16 08:18:42;;;;;;;0.30;0.30;;;9.70;99.90;;;;;;4965787;28;20169;-62
2023/11/16 08:21:12;;;;;;;0.30;0.30;;;9.80;99.90;;;;;;4955115;28;20302;-61
2023/11/16 08:23:39;;;;;;;0.40;0.40;;;9.80;99.90;;;;;;4962135;28;20260;-60
2023/11/16 08:26:10;;;;;;;0.35;0.35;;;9.90;99.90;;;;;;4973045;28;20512;-63
2023/11/16 08:28:36;;;;;;;0.30;0.30;;;9.90;99.90;;;;;;4961020;28;20180;-62
2023/11/16 08:31:02;;;;;;;0.55;0.55;;;10.00;99.90;;;;;;4967380;28;20203;-62
2023/11/16 08:33:31;;;;;;;1.00;1.00;;;10.10;99.90;;;;;;4963504;28;20223;-65
2023/11/16 08:35:58;;;;;;;0.30;0.30;;;10.10;99.90;;;;;;4955336;28;20255;-64
2023/11/16 08:38:25;;;;;;;0.30;0.30;;;10.20;99.90;;;;;;4955419;28;20198;-59
2023/11/16 08:41:00;;;;;;;0.30;0.30;;;10.30;99.90;;;;;;4961862;28;20577;-63
2023/11/16 08:43:32;;;;;;;0.30;0.30;;;10.30;99.90;;;;;;4974302;28;20454;-60
2023/11/16 08:45:57;;;;;;;0.40;0.40;;;10.40;99.90;;;;;;4962268;28;20481;-61
2023/11/16 08:48:32;;;;;;;0.50;0.50;;;10.40;99.90;;;;;;4954810;29;20219;-62
2023/11/16 08:51:05;;;;;;;0.40;0.40;;;10.50;99.90;;;;;;4955943;29;20757;-64
2023/11/16 08:53:36;;;;;;;0.30;0.30;;;10.60;99.90;;;;;;4955936;28;20475;-63
2023/11/16 08:56:07;;;;;;;0.35;0.35;;;10.60;99.90;;;;;;4955039;28;20451;-62
2023/11/16 08:58:34;;;;;;;0.30;0.30;;;10.60;99.90;;;;;;4957602;28;20188;-61
2023/11/16 09:01:04;;;;;;;0.30;0.30;;;10.70;99.90;;;;;;4955353;28;20422;-64
2023/11/16 09:03:33;;;;;;;0.30;0.30;;;10.80;99.90;;;;;;4954509;29;20462;-63
2023/11/16 09:06:06;;;;;;;0.50;0.50;;;10.80;99.90;;;;;;4936766;29;20472;-64
2023/11/16 09:08:37;;;;;;;0.30;0.30;;;10.90;99.90;;;;;;4954791;29;20823;-61
2023/11/16 09:11:04;;;;;;;0.30;0.30;;;11.00;99.90;;;;;;4954636;29;20454;-63
2023/11/16 09:13:30;;;;;;;0.30;0.30;;;11.00;99.90;;;;;;4955057;29;20381;-62
2023/11/16 09:15:55;;;;;;;0.30;0.30;;;11.10;99.90;;;;;;4954713;28;20434;-63
2023/11/16 09:18:26;;;;;;;0.40;0.40;;;11.20;99.90;;;;;;4955017;29;20396;-63
2023/11/16 09:20:56;;;;;;;0.30;0.27;;;11.20;99.90;;;;;;4955461;29;20534;-63
2023/11/16 09:23:23;;;;;;;0.30;0.30;;;11.30;99.90;;;;;;4955175;29;20836;-62
2023/11/16 09:25:49;;;;;;;0.30;0.30;;;11.30;99.90;;;;;;4954408;28;20434;-63
2023/11/16 09:28:15;;;;;;;0.50;0.47;;;11.30;99.90;;;;;;4954972;29;20418;-62
2023/11/16 09:30:43;;;;;;;0.40;0.40;;;11.20;99.90;;;;;;4954852;29;20458;-63
2023/11/16 09:33:12;;;;;;;0.30;0.30;;;11.30;99.90;;;;;;4954647;29;20426;-63
2023/11/16 09:35:40;;;;;;;0.30;0.30;;;11.20;99.90;;;;;;4954503;28;20423;-63
2023/11/16 09:38:08;;;;;;;0.30;0.30;;;11.20;99.90;;;;;;4937474;29;20411;-61
2023/11/16 09:40:35;;;;;;;0.30;0.30;;;11.20;99.90;;;;;;4954777;29;20378;-63
2023/11/16 09:43:14;;;;;;;0.50;0.50;;;11.20;99.90;;;;;;4954672;29;20429;-64
2023/11/16 09:45:42;;;;;;;0.30;0.30;;;11.30;99.90;;;;;;4953966;28;20485;-62
2023/11/16 09:48:12;;;;;;;0.40;0.40;;;11.30;99.90;;;;;;4954824;29;20402;-63
2023/11/16 09:50:44;;;;;;;0.47;0.47;;;11.20;99.90;;;;;;4954635;29;20550;-62
2023/11/16 09:53:22;;;;;;;0.40;0.40;;;11.20;99.90;;;;;;4921466;28;20430;-62
2023/11/16 09:55:50;;;;;;;0.50;0.50;;;11.10;99.90;;;;;;4941220;29;20442;-61
2023/11/16 09:58:28;;;;;;;0.30;0.20;;;11.10;99.90;;;;;;4958652;28;20496;-63
2023/11/16 10:00:58;;;;;;;0.30;0.27;;;11.00;99.90;;;;;;4962393;28;20487;-64
2023/11/16 10:03:31;;;;;;;0.40;0.40;;;11.10;99.90;;;;;;4971589;28;20498;-62
2023/11/16 10:06:01;;;;;;;0.30;0.30;;;11.10;99.90;;;;;;4956601;28;20453;-63
2023/11/16 10:08:28;;;;;;;0.30;0.30;;;11.10;99.90;;;;;;4940990;28;20410;-64
2023/11/16 10:11:02;;;;;;;0.30;0.20;;;11.10;99.90;;;;;;4951609;28;20822;-63
2023/11/16 10:13:28;;;;;;;0.30;0.30;;;11.10;99.90;;;;;;4951692;28;20757;-61
2023/11/16 10:15:59;;;;;;;0.30;0.30;;;11.00;99.90;;;;;;4957622;28;20446;-62
2023/11/16 10:18:25;;;;;;;0.30;0.20;;;11.00;99.90;;;;;;4966634;28;20446;-61
2023/11/16 10:20:53;;;;;;;0.40;0.40;;;11.00;99.90;;;;;;4942762;29;21001;-62
2023/11/16 10:23:19;;;;;;;0.60;0.60;;;11.00;99.90;;;;;;4940917;29;20415;-61
2023/11/16 10:25:48;;;;;;;0.30;0.20;;;11.00;99.90;;;;;;4956214;28;20431;-64
2023/11/16 10:28:21;;;;;;;0.30;0.20;;;11.00;99.90;;;;;;4955379;29;20186;-64
2023/11/16 10:30:48;;;;;;;0.30;0.30;;;11.00;99.90;;;;;;4939611;29;20455;-65
2023/11/16 10:33:20;;;;;;;0.30;0.30;;;11.00;99.90;;;;;;4955657;29;20394;-65
2023/11/16 10:35:52;;;;;;;0.30;0.30;;;11.00;99.90;;;;;;4955633;28;20449;-63
2023/11/16 10:38:21;;;;;;;0.30;0.30;;;11.00;99.90;;;;;;4956676;29;20463;-61
2023/11/16 10:40:53;;;;;;;0.30;0.27;;;11.00;99.90;;;;;;4956927;29;20489;-64
2023/11/16 10:43:25;;;;;;;0.40;0.40;;;11.00;99.90;;;;;;4957851;29;20401;-63
2023/11/16 10:45:53;;;;;;;0.30;0.30;;;11.00;99.90;;;;;;4957614;28;20414;-63
2023/11/16 10:48:19;;;;;;;0.40;0.40;;;11.00;99.90;;;;;;4940550;29;20945;-61
2023/11/16 10:50:45;;;;;;;0.30;0.30;;;11.00;99.90;;;;;;4957749;29;20960;-62
2023/11/16 10:53:22;;;;;;;0.30;0.30;;;11.00;99.90;;;;;;4957624;29;20410;-62
2023/11/16 10:55:49;;;;;;;0.80;0.60;;;11.00;99.90;;;;;;4957310;28;20431;-62
2023/11/16 10:58:20;;;;;;;0.30;0.30;;;11.00;99.90;;;;;;4957474;29;20483;-64
2023/11/16 11:01:08;;;;;;;0.30;0.30;;;11.00;99.90;;;;;;4940378;29;20479;-62
2023/11/16 11:03:37;;;;;;;0.30;0.30;;;11.00;99.90;;;;;;4957584;29;20394;-62
2023/11/16 11:06:06;;;;;;;0.50;0.50;;;10.90;99.90;;;;;;4956226;28;20457;-63
2023/11/16 11:08:42;;;;;;;0.30;0.30;;;10.90;99.90;;;;;;4957267;29;20426;-61
2023/11/16 11:11:10;;;;;;;0.30;0.30;;;10.90;99.90;;;;;;4957052;29;20456;-64
2023/11/16 11:13:39;;;;;;;0.40;0.40;;;10.90;99.90;;;;;;4957237;29;20437;-62
2023/11/16 11:16:14;;;;;;;0.40;0.40;;;10.80;99.90;;;;;;4957213;28;20408;-63
2023/11/16 11:18:48;;;;;;;0.30;0.27;;;10.80;99.90;;;;;;4941237;29;20503;-63
2023/11/16 11:21:16;;;;;;;0.30;0.20;;;10.70;99.90;;;;;;4957585;29;20470;-63
2023/11/16 11:23:42;;;;;;;0.30;0.30;;;10.70;99.90;;;;;;4957691;29;20416;-62
2023/11/16 11:26:13;;;;;;;0.30;0.30;;;10.60;99.90;;;;;;4957128;28;20512;-64
2023/11/16 11:28:40;;;;;;;0.30;0.30;;;10.70;99.90;;;;;;4957245;29;20270;-61
2023/11/16 11:31:10;;;;;;;0.30;0.30;;;10.60;99.90;;;;;;4956936;29;20466;-64
2023/11/16 11:33:43;;;;;;;0.30;0.30;;;10.50;99.90;;;;;;4957672;29;20253;-63
2023/11/16 11:36:11;;;;;;;0.53;0.53;;;10.50;99.90;;;;;;4956855;28;20762;-64
2023/11/16 11:38:42;;;;;;;0.30;0.30;;;10.50;99.90;;;;;;4957291;29;20407;-63
2023/11/16 11:41:09;;;;;;;0.30;0.20;;;10.60;99.90;;;;;;4957281;29;20212;-63
2023/11/16 11:43:39;;;;;;;0.30;0.30;;;10.70;99.90;;;;;;4956925;29;20583;-63
2023/11/16 11:46:09;;;;;;;0.33;0.33;;;10.80;99.90;;;;;;4956649;28;20533;-62
2023/11/16 11:48:39;;;;;;;0.30;0.30;;;10.90;99.90;;;;;;4957126;29;20542;-61
2023/11/16 11:51:08;;;;;;;0.30;0.30;;;10.90;99.90;;;;;;4957035;29;20451;-62
2023/11/16 11:53:34;;;;;;;0.30;0.30;;;10.90;99.90;;;;;;4957077;29;20413;-62
2023/11/16 11:56:02;;;;;;;0.30;0.30;;;10.90;99.90;;;;;;4956403;28;20939;-64
2023/11/16 11:58:28;;;;;;;0.40;0.40;;;11.00;99.90;;;;;;4956602;29;20418;-62
2023/11/16 12:00:57;;;;;;;0.30;0.30;;;11.00;99.90;;;;;;4957144;29;20763;-62
2023/11/16 12:03:22;;;;;;;0.30;0.30;;;11.00;99.90;;;;;;4939758;29;20238;-62
2023/11/16 12:05:59;;;;;;;0.30;0.30;;;11.10;99.90;;;;;;4956348;28;20445;-65
2023/11/16 12:08:41;;;;;;;0.30;0.30;;;11.10;99.90;;;;;;4956885;29;20438;-61
2023/11/16 12:11:10;;;;;;;0.30;0.30;;;11.10;99.90;;;;;;4956518;29;20525;-63
2023/11/16 12:13:36;;;;;;;0.30;0.20;;;11.00;99.90;;;;;;4956622;29;20465;-62
2023/11/16 12:16:06;;;;;;;0.30;0.20;;;11.00;99.90;;;;;;4955206;28;20443;-64
2023/11/16 12:18:35;;;;;;;0.30;0.30;;;11.10;99.90;;;;;;4955510;28;20446;-62
2023/11/16 12:21:04;;;;;;;0.40;0.40;;;11.10;99.90;;;;;;4956522;29;20498;-65
2023/11/16 12:23:30;;;;;;;0.30;0.30;;;11.20;99.90;;;;;;4956209;29;20461;-62
2023/11/16 12:25:57;;;;;;;0.30;0.20;;;11.20;99.90;;;;;;4955660;28;20436;-63
2023/11/16 12:28:26;;;;;;;0.60;0.43;;;11.10;99.90;;;;;;4956469;29;20178;-62
2023/11/16 12:30:52;;;;;;;0.30;0.30;;;11.10;99.90;;;;;;4956064;29;20460;-64
2023/11/16 12:33:18;;;;;;;0.30;0.30;;;11.20;99.90;;;;;;4956336;29;20406;-63
2023/11/16 12:35:43;;;;;;;0.30;0.30;;;11.20;99.90;;;;;;4955776;28;20427;-63
2023/11/16 12:38:10;;;;;;;0.37;0.37;;;11.20;99.90;;;;;;4956336;29;20171;-62
2023/11/16 12:40:36;;;;;;;0.30;0.30;;;11.10;99.90;;;;;;4955557;29;20567;-63
2023/11/16 12:43:03;;;;;;;0.30;0.30;;;10.90;99.90;;;;;;4938865;29;20428;-63
2023/11/16 12:45:31;;;;;;;0.30;0.30;;;10.80;99.90;;;;;;4955548;28;20205;-62
2023/11/16 12:48:00;;;;;;;0.30;0.30;;;10.70;99.90;;;;;;4956026;29;20174;-62
2023/11/16 12:50:27;;;;;;;0.40;0.40;;;10.80;99.90;;;;;;4955902;29;20400;-62
2023/11/16 12:52:53;;;;;;;0.40;0.40;;;10.80;99.90;;;;;;4955827;29;20409;-63
2023/11/16 12:55:19;;;;;;;0.50;0.50;;;10.70;99.90;;;;;;4937872;29;20442;-62
2023/11/16 12:57:48;;;;;;;0.40;0.40;;;10.60;99.90;;;;;;4955724;29;20480;-62
2023/11/16 13:00:17;;;;;;;0.30;0.30;;;10.60;99.90;;;;;;4955798;29;20245;-61
2023/11/16 13:02:43;;;;;;;0.40;0.40;;;10.70;99.90;;;;;;4956075;29;20824;-63
2023/11/16 13:05:11;;;;;;;0.30;0.30;;;10.60;99.90;;;;;;4955124;28;20189;-62
2023/11/16 13:07:38;;;;;;;0.30;0.30;;;10.50;99.90;;;;;;4938499;29;20202;-64
2023/11/16 13:10:04;;;;;;;0.30;0.30;;;10.50;99.90;;;;;;4955201;29;20554;-61
2023/11/16 13:12:30;;;;;;;0.30;0.30;;;10.50;99.90;;;;;;4955419;29;20276;-62
2023/11/16 13:14:56;;;;;;;0.50;0.50;;;10.50;99.90;;;;;;4955069;28;20690;-62
2023/11/16 13:17:21;;;;;;;0.47;0.47;;;10.40;99.90;;;;;;4955449;29;20169;-62
2023/11/16 13:19:47;;;;;;;0.30;0.30;;;10.40;99.90;;;;;;4961345;28;20179;-63
2023/11/16 13:22:14;;;;;;;0.53;0.53;;;10.40;99.90;;;;;;4974145;28;20536;-63
2023/11/16 13:24:41;;;;;;;0.30;0.30;;;10.30;99.90;;;;;;4973965;28;20416;-61
2023/11/16 13:27:07;;;;;;;0.30;0.30;;;10.10;99.90;;;;;;4963925;28;20180;-63
2023/11/16 13:29:33;;;;;;;0.30;0.30;;;9.90;99.90;;;;;;4974366;28;20164;-62
2023/11/16 13:31:58;;;;;;;0.30;0.30;;;9.80;99.90;;;;;;4959203;28;20217;-61
2023/11/16 13:34:24;;;;;;;0.37;0.37;;;9.60;99.90;;;;;;4954572;29;20176;-62
2023/11/16 13:36:51;;;;;;;0.30;0.30;;;9.50;99.90;;;;;;4955242;28;20260;-61
2023/11/16 13:39:17;;;;;;;0.40;0.40;;;9.30;99.90;;;;;;4955093;28;20274;-62
2023/11/16 13:41:47;;;;;;;0.30;0.30;;;9.20;99.90;;;;;;4954786;29;20177;-62
2023/11/16 13:44:13;;;;;;;0.30;0.30;;;9.10;99.90;;;;;;4954676;29;20415;-62
2023/11/16 13:46:39;;;;;;;0.30;0.20;;;9.10;99.90;;;;;;4956190;28;20608;-61
2023/11/16 13:49:04;;;;;;;0.60;0.43;;;9.00;99.90;;;;;;4955195;29;20169;-61
2023/11/16 13:51:30;;;;;;;0.30;0.30;;;8.90;99.90;;;;;;4960098;28;20589;-61
2023/11/16 13:53:57;;;;;;;0.30;0.30;;;8.80;99.90;;;;;;4969866;28;20184;-62
2023/11/16 13:56:23;;;;;;;0.40;0.40;;;8.80;99.90;;;;;;4958925;28;20191;-62
2023/11/16 13:58:50;;;;;;;0.40;0.40;;;8.80;99.90;;;;;;4962732;28;20532;-61
2023/11/16 14:01:17;;;;;;;0.30;0.30;;;8.80;99.90;;;;;;4973967;28;20180;-61
2023/11/16 14:03:42;;;;;;;0.30;0.30;;;8.70;99.90;;;;;;4973543;28;20521;-59
2023/11/16 14:06:09;;;;;;;0.30;0.30;;;8.70;99.90;;;;;;4956265;28;20227;-61
2023/11/16 14:08:35;;;;;;;0.30;0.30;;;8.70;99.90;;;;;;4968536;28;20176;-60
2023/11/16 14:11:01;;;;;;;0.30;0.30;;;8.70;99.90;;;;;;4954478;29;20204;-60
2023/11/16 14:13:28;;;;;;;0.30;0.30;;;8.70;99.90;;;;;;4954941;29;20651;-59
2023/11/16 14:15:53;;;;;;;0.30;0.30;;;8.70;99.90;;;;;;4954333;28;20440;-60
2023/11/16 14:18:19;;;;;;;0.40;0.40;;;8.70;99.90;;;;;;4954598;28;20617;-60
2023/11/16 14:20:45;;;;;;;0.30;0.30;;;8.70;99.90;;;;;;4954980;29;20173;-60
2023/11/16 14:23:10;;;;;;;0.30;0.30;;;8.70;99.90;;;;;;4967922;28;20179;-59
2023/11/16 14:25:36;;;;;;;0.33;0.33;;;8.70;99.90;;;;;;4960376;28;20684;-60
2023/11/16 14:28:02;;;;;;;0.30;0.30;;;8.70;99.90;;;;;;4954633;29;20256;-61
2023/11/16 14:30:28;;;;;;;0.30;0.30;;;8.70;99.90;;;;;;4955916;28;20498;-59
2023/11/16 14:32:54;;;;;;;0.30;0.30;;;8.70;99.90;;;;;;4965314;28;20187;-60
2023/11/16 14:35:19;;;;;;;0.30;0.30;;;8.70;99.90;;;;;;4973727;28;20434;-59
2023/11/16 14:37:46;;;;;;;0.30;0.30;;;8.60;99.90;;;;;;4973725;28;20176;-61
2023/11/16 14:40:12;;;;;;;0.40;0.40;;;8.60;99.90;;;;;;4969497;28;20169;-61
2023/11/16 14:42:38;;;;;;;0.30;0.30;;;8.60;99.90;;;;;;4957671;28;20219;-61
2023/11/16 14:45:04;;;;;;;0.30;0.30;;;8.60;99.90;;;;;;4957909;28;20562;-62
2023/11/16 14:47:30;;;;;;;0.73;0.73;;;8.50;99.90;;;;;;4977153;28;20184;-62
2023/11/16 14:49:56;;;;;;;0.40;0.40;;;8.50;99.90;;;;;;4976657;28;20256;-62
2023/11/16 14:52:22;;;;;;;0.30;0.30;;;8.50;99.90;;;;;;4967818;28;20232;-61
2023/11/16 14:54:47;;;;;;;0.30;0.30;;;8.50;99.90;;;;;;4957280;28;20177;-60
2023/11/16 14:57:13;;;;;;;0.30;0.30;;;8.50;99.90;;;;;;4940468;29;20179;-61
2023/11/16 14:59:39;;;;;;;0.30;0.30;;;8.50;99.90;;;;;;4974267;28;20175;-61
2023/11/16 15:02:04;;;;;;;1.80;1.13;;;8.50;99.90;;;;;;4962739;28;20594;-60
2023/11/16 15:04:30;;;;;;;0.30;0.30;;;8.50;99.90;;;;;;4957694;29;20249;-63
2023/11/16 15:06:56;;;;;;;0.40;0.40;;;8.50;99.90;;;;;;4961115;28;20212;-60
2023/11/16 15:09:22;;;;;;;0.40;0.40;;;8.50;99.90;;;;;;4977276;28;20490;-60
2023/11/16 15:11:48;;;;;;;0.30;0.30;;;8.50;99.90;;;;;;4957554;28;20680;-60
2023/11/16 15:14:17;;;;;;;0.40;0.40;;;8.40;99.90;;;;;;4957410;29;20167;-61
2023/11/16 15:16:44;;;;;;;0.30;0.30;;;8.40;99.90;;;;;;4957580;28;20444;-59
2023/11/16 15:19:10;;;;;;;0.47;0.47;;;8.40;99.90;;;;;;4957905;29;20502;-61
2023/11/16 15:21:40;;;;;;;0.30;0.30;;;8.40;99.90;;;;;;4967162;28;20216;-60
2023/11/16 15:24:10;;;;;;;0.38;0.38;;;8.40;99.90;;;;;;4957048;29;20172;-61
2023/11/16 15:26:36;;;;;;;0.30;0.20;;;8.30;99.90;;;;;;4970002;28;20204;-61
2023/11/16 15:29:03;;;;;;;0.30;0.30;;;8.30;99.90;;;;;;4976917;28;20200;-62
2023/11/16 15:31:33;;;;;;;0.30;0.30;;;8.30;99.90;;;;;;4966832;28;20192;-63
2023/11/16 15:33:59;;;;;;;0.50;0.50;;;8.20;99.90;;;;;;4976481;28;20230;-61
2023/11/16 15:36:25;;;;;;;0.40;0.40;;;8.20;99.90;;;;;;4973619;28;20284;-62
2023/11/16 15:38:51;;;;;;;0.30;0.20;;;8.20;99.90;;;;;;4957426;29;20224;-61
2023/11/16 15:41:18;;;;;;;0.30;0.30;;;8.20;99.90;;;;;;4956225;28;20172;-61
2023/11/16 15:43:44;;;;;;;0.30;0.30;;;8.20;99.90;;;;;;4956573;29;20459;-60
2023/11/16 15:46:14;;;;;;;0.30;0.30;;;8.10;99.90;;;;;;4955692;28;20224;-62
2023/11/16 15:48:41;;;;;;;0.30;0.30;;;8.10;99.90;;;;;;4956656;29;20201;-61
2023/11/16 15:51:08;;;;;;;0.30;0.20;;;8.20;99.90;;;;;;4943826;28;20227;-61
2023/11/16 15:53:34;;;;;;;0.32;0.32;;;8.10;99.90;;;;;;4975599;28;20170;-60
2023/11/16 15:56:04;;;;;;;0.30;0.30;;;8.10;99.90;;;;;;4956379;28;20200;-61
2023/11/16 15:58:31;;;;;;;0.38;0.38;;;8.10;99.90;;;;;;4956121;29;20175;-62
2023/11/16 16:00:58;;;;;;;0.40;0.40;;;8.10;99.90;;;;;;4959434;28;20223;-61
2023/11/16 16:03:25;;;;;;;0.30;0.30;;;8.10;99.90;;;;;;4937221;29;20208;-64
2023/11/16 16:05:51;;;;;;;0.38;0.38;;;8.00;99.90;;;;;;4956531;28;20692;-61
2023/11/16 16:08:18;;;;;;;0.30;0.30;;;8.00;99.90;;;;;;4957971;28;20207;-61
2023/11/16 16:10:44;;;;;;;0.30;0.30;;;8.00;99.90;;;;;;4973870;28;20226;-61
2023/11/16 16:13:10;;;;;;;0.30;0.30;;;8.00;99.90;;;;;;4975329;28;20172;-60
2023/11/16 16:15:36;;;;;;;0.30;0.30;;;8.00;99.90;;;;;;4975013;28;20184;-62
2023/11/16 16:18:03;;;;;;;0.30;0.30;;;8.00;99.90;;;;;;4960534;28;20224;-61
2023/11/16 16:20:29;;;;;;;0.40;0.40;;;8.00;99.90;;;;;;4954828;29;20434;-61
2023/11/16 16:22:56;;;;;;;0.30;0.30;;;8.00;99.90;;;;;;4971502;28;20594;-62
2023/11/16 16:25:22;;;;;;;0.30;0.30;;;8.00;99.90;;;;;;4974944;28;20188;-61
2023/11/16 16:27:51;;;;;;;0.30;0.30;;;8.00;99.90;;;;;;4974833;28;20187;-61
2023/11/16 16:30:17;;;;;;;0.30;0.30;;;7.90;99.90;;;;;;4975215;28;20525;-63
2023/11/16 16:32:43;;;;;;;0.40;0.40;;;7.90;99.90;;;;;;4974922;28;20311;-61
2023/11/16 16:35:09;;;;;;;0.30;0.30;;;7.90;99.90;;;;;;4957200;28;20442;-59
2023/11/16 16:37:34;;;;;;;0.30;0.30;;;7.80;99.90;;;;;;4939046;29;20185;-62
2023/11/16 16:40:00;;;;;;;0.40;0.40;;;7.80;99.90;;;;;;4955578;29;20172;-62
2023/11/16 16:42:27;;;;;;;0.30;0.30;;;7.80;99.90;;;;;;4955409;29;20657;-61
2023/11/16 16:44:53;;;;;;;0.30;0.30;;;7.80;99.90;;;;;;4955339;28;20173;-61
2023/11/16 16:47:20;;;;;;;0.40;0.40;;;7.80;99.90;;;;;;4955868;29;20183;-61
2023/11/16 16:49:50;;;;;;;0.85;0.85;;;7.70;99.90;;;;;;4956202;29;20180;-61
2023/11/16 16:52:16;;;;;;;0.30;0.30;;;7.70;99.90;;;;;;4972338;28;20208;-61
2023/11/16 16:54:42;;;;;;;0.70;0.70;;;7.70;99.90;;;;;;4947458;28;20553;-59
2023/11/16 16:57:10;;;;;;;0.30;0.30;;;7.70;99.90;;;;;;4961024;28;20179;-63
2023/11/16 16:59:36;;;;;;;0.32;0.32;;;7.70;99.90;;;;;;4955584;29;20172;-61